Time;durP1;ratioP1;P1;durP2;ratioP2;P2;SDS_P1;SDS_P2;PMS_P1;PMS_P2;Temp;Humidity;BMP_temperature;BMP_pressure;BME280_temperature;BME280_humidity;BME280_pressure;Samples;Min_cycle;Max_cycle;Signal;HPM_P1;HPM_P2
2022/06/05 00:01:11;;;;;;;5.07;3.05;;;18.10;99.90;;;;;;4956557;29;20452;-66
2022/06/05 00:03:37;;;;;;;4.82;2.65;;;18.10;99.90;;;;;;4939403;29;20375;-67
2022/06/05 00:06:19;;;;;;;3.53;2.53;;;18.10;99.90;;;;;;4939251;29;20031;-68
2022/06/05 00:09:29;;;;;;;4.15;2.78;;;18.10;99.90;;;;;;4939276;29;20403;-68
2022/06/05 00:12:06;;;;;;;2.95;2.50;;;18.20;99.90;;;;;;4929511;29;20039;-68
2022/06/05 00:14:32;;;;;;;4.95;3.95;;;18.20;99.90;;;;;;4939233;29;20379;-67
2022/06/05 00:16:58;;;;;;;5.53;2.80;;;18.20;99.90;;;;;;4939230;29;20023;-67
2022/06/05 00:19:24;;;;;;;3.47;2.92;;;18.10;99.90;;;;;;4956274;29;20031;-67
2022/06/05 00:21:50;;;;;;;5.72;2.70;;;18.10;99.90;;;;;;4956217;29;20059;-68
2022/06/05 00:24:16;;;;;;;5.15;2.50;;;18.20;99.90;;;;;;4956129;28;20054;-68
2022/06/05 00:27:18;;;;;;;6.30;2.80;;;18.10;99.90;;;;;;4956382;29;20039;-68
2022/06/05 00:30:21;;;;;;;6.38;2.50;;;18.10;99.90;;;;;;4920476;29;20070;-68
2022/06/05 00:33:07;;;;;;;4.82;2.80;;;18.10;99.90;;;;;;4939362;29;20388;-68
2022/06/05 00:36:00;;;;;;;2.88;2.60;;;18.10;99.90;;;;;;4956214;29;20032;-68
2022/06/05 00:38:34;;;;;;;4.50;2.90;;;18.00;99.90;;;;;;4955901;29;20047;-67
2022/06/05 00:41:18;;;;;;;4.32;2.53;;;18.00;99.90;;;;;;4956019;29;20102;-68
2022/06/05 00:43:44;;;;;;;4.40;2.75;;;18.00;99.90;;;;;;4939241;29;20388;-68
2022/06/05 00:46:10;;;;;;;3.28;2.35;;;18.00;99.90;;;;;;4955849;29;20086;-68
2022/06/05 00:48:36;;;;;;;3.05;2.65;;;18.00;99.90;;;;;;4955579;29;20399;-68
2022/06/05 00:51:02;;;;;;;4.05;2.75;;;18.00;99.90;;;;;;4955744;29;20040;-68
2022/06/05 00:53:28;;;;;;;3.03;2.72;;;17.90;99.90;;;;;;4956090;29;20563;-68
2022/06/05 00:55:54;;;;;;;3.55;2.88;;;17.90;99.90;;;;;;4955821;29;20106;-68
2022/06/05 00:58:21;;;;;;;4.07;2.63;;;17.90;99.90;;;;;;4955767;29;20060;-68
2022/06/05 01:00:52;;;;;;;5.30;3.10;;;17.80;99.90;;;;;;4955475;29;20043;-68
2022/06/05 01:03:19;;;;;;;5.97;3.33;;;17.80;99.90;;;;;;4955517;29;20054;-68
2022/06/05 01:05:45;;;;;;;7.85;3.30;;;17.70;99.90;;;;;;4956177;29;20467;-68
2022/06/05 01:08:12;;;;;;;3.10;2.80;;;17.70;99.90;;;;;;4955862;29;20143;-68
2022/06/05 01:10:51;;;;;;;3.88;3.33;;;17.70;99.90;;;;;;4955605;29;20081;-67
2022/06/05 01:13:26;;;;;;;2.97;2.70;;;17.60;99.90;;;;;;4938976;29;20027;-68
2022/06/05 01:16:22;;;;;;;5.18;3.05;;;17.60;99.90;;;;;;4955662;29;20032;-68
2022/06/05 01:19:25;;;;;;;3.33;2.90;;;17.50;99.90;;;;;;4955904;29;20031;-68
2022/06/05 01:22:28;;;;;;;3.25;2.92;;;17.50;99.90;;;;;;4955890;29;20059;-68
2022/06/05 01:25:21;;;;;;;4.20;2.88;;;17.50;99.90;;;;;;4959365;28;20051;-68
2022/06/05 01:27:54;;;;;;;4.57;3.28;;;17.50;99.90;;;;;;4955792;29;20051;-68
2022/06/05 01:30:23;;;;;;;3.50;2.88;;;17.50;99.90;;;;;;4959738;29;20114;-68
2022/06/05 01:33:03;;;;;;;3.20;2.90;;;17.50;99.90;;;;;;4959346;29;20023;-68
2022/06/05 01:35:37;;;;;;;6.65;3.22;;;17.50;99.90;;;;;;4959521;29;20031;-68
2022/06/05 01:38:09;;;;;;;4.85;2.90;;;17.40;99.90;;;;;;4941960;29;20505;-68
2022/06/05 01:40:40;;;;;;;5.53;3.80;;;17.40;99.90;;;;;;4959555;29;20037;-68
2022/06/05 01:43:12;;;;;;;2.85;2.65;;;17.40;99.90;;;;;;4959131;29;20110;-68
2022/06/05 01:46:00;;;;;;;4.55;3.28;;;17.40;99.90;;;;;;4958785;29;20419;-68
2022/06/05 01:48:43;;;;;;;4.72;3.10;;;17.30;99.90;;;;;;4959026;29;20039;-68
2022/06/05 01:51:33;;;;;;;4.13;3.20;;;17.30;99.90;;;;;;4958981;29;20057;-68
2022/06/05 01:54:03;;;;;;;2.85;2.65;;;17.30;99.90;;;;;;4959151;29;20063;-68
2022/06/05 01:56:42;;;;;;;5.38;3.33;;;17.30;99.90;;;;;;4958580;29;20031;-68
2022/06/05 01:59:17;;;;;;;;;;;17.30;99.90;;;;;;4942062;29;20023;-68
2022/06/05 02:01:49;;;;;;;5.95;3.05;;;17.30;99.90;;;;;;4941558;29;19945;-67
2022/06/05 02:04:38;;;;;;;5.05;2.78;;;17.30;99.90;;;;;;4958481;29;20107;-67
2022/06/05 02:07:09;;;;;;;3.42;3.05;;;17.20;99.90;;;;;;4941627;29;20034;-67
2022/06/05 02:09:40;;;;;;;7.40;3.50;;;17.20;99.90;;;;;;4958537;29;20090;-67
2022/06/05 02:12:07;;;;;;;5.30;3.53;;;17.10;99.90;;;;;;4958379;29;20031;-68
2022/06/05 02:14:33;;;;;;;4.72;3.25;;;17.10;99.90;;;;;;4958263;29;20391;-68
2022/06/05 02:17:00;;;;;;;4.32;3.47;;;17.10;99.90;;;;;;4958746;29;20031;-67
2022/06/05 02:19:26;;;;;;;5.55;3.78;;;17.00;99.90;;;;;;4958721;29;20031;-68
2022/06/05 02:21:58;;;;;;;3.78;3.40;;;17.00;99.90;;;;;;4958332;29;20036;-68
2022/06/05 02:24:24;;;;;;;6.72;3.78;;;16.90;99.90;;;;;;4958309;29;20054;-68
2022/06/05 02:26:49;;;;;;;7.10;3.30;;;16.90;99.90;;;;;;4958329;29;20028;-68
2022/06/05 02:29:22;;;;;;;6.13;3.25;;;16.80;99.90;;;;;;4958552;29;20031;-67
2022/06/05 02:32:15;;;;;;;3.60;3.30;;;16.80;99.90;;;;;;4958002;29;20126;-67
2022/06/05 02:34:46;;;;;;;5.22;3.78;;;16.80;99.90;;;;;;4957630;28;20086;-68
2022/06/05 02:37:17;;;;;;;4.55;3.80;;;16.80;99.90;;;;;;4941035;29;20031;-68
2022/06/05 02:40:08;;;;;;;4.53;3.97;;;16.70;99.90;;;;;;4958322;29;20053;-67
2022/06/05 02:42:35;;;;;;;4.90;3.90;;;16.70;99.90;;;;;;4957774;29;20033;-67
2022/06/05 02:45:16;;;;;;;4.50;3.33;;;16.70;99.90;;;;;;4957987;29;20063;-67
2022/06/05 02:47:41;;;;;;;5.50;3.65;;;16.60;99.90;;;;;;4940773;29;20040;-67
2022/06/05 02:50:36;;;;;;;4.88;3.80;;;16.60;99.90;;;;;;4958040;29;20031;-68
2022/06/05 02:53:06;;;;;;;4.35;3.95;;;16.60;99.90;;;;;;4958003;29;20379;-67
2022/06/05 02:55:32;;;;;;;4.97;3.60;;;16.50;99.90;;;;;;4940560;29;20038;-68
2022/06/05 02:57:58;;;;;;;5.22;3.70;;;16.50;99.90;;;;;;4957767;29;20047;-67
2022/06/05 03:00:28;;;;;;;4.93;3.85;;;16.50;99.90;;;;;;4940820;29;20027;-67
2022/06/05 03:05:39;;;;;;;7.35;4.43;;;16.50;99.90;;;;;;4957723;29;20038;-67
2022/06/05 03:08:06;;;;;;;8.05;4.05;;;16.50;99.90;;;;;;4957830;29;20031;-67
2022/06/05 03:10:33;;;;;;;11.05;4.45;;;16.50;99.90;;;;;;4957480;29;20386;-67
2022/06/05 03:13:01;;;;;;;4.53;4.13;;;16.50;99.90;;;;;;4957523;29;20210;-67
2022/06/05 03:15:28;;;;;;;5.43;4.17;;;16.50;99.90;;;;;;4940297;29;20059;-67
2022/06/05 03:17:54;;;;;;;5.82;4.20;;;16.50;99.90;;;;;;4957411;29;20039;-67
2022/06/05 03:20:20;;;;;;;7.40;4.82;;;16.50;99.90;;;;;;4940180;29;20031;-67
2022/06/05 03:22:46;;;;;;;6.65;4.88;;;16.50;99.90;;;;;;4957580;29;20106;-68
2022/06/05 03:25:17;;;;;;;5.72;4.63;;;16.50;99.90;;;;;;4956790;29;20051;-67
2022/06/05 03:27:43;;;;;;;5.05;4.45;;;16.60;99.90;;;;;;4940422;29;20042;-67
2022/06/05 03:30:09;;;;;;;5.22;4.38;;;16.60;99.90;;;;;;4956809;29;20391;-68
2022/06/05 03:32:35;;;;;;;4.47;4.07;;;16.60;99.90;;;;;;4939897;29;20459;-67
2022/06/05 03:35:01;;;;;;;4.13;3.72;;;16.60;99.90;;;;;;4957071;29;20038;-68
2022/06/05 03:37:27;;;;;;;6.43;4.05;;;16.60;99.90;;;;;;4957021;29;20023;-67
2022/06/05 03:39:52;;;;;;;4.18;3.78;;;16.60;99.90;;;;;;4957029;29;20035;-68
2022/06/05 03:42:18;;;;;;;3.63;3.33;;;16.60;99.90;;;;;;4957262;29;20027;-67
2022/06/05 03:44:44;;;;;;;4.43;3.35;;;16.60;99.90;;;;;;4956926;29;20027;-68
2022/06/05 03:47:12;;;;;;;3.75;3.45;;;16.60;99.90;;;;;;4955921;28;20030;-67
2022/06/05 03:49:38;;;;;;;3.92;3.47;;;16.70;99.90;;;;;;4939509;29;20455;-68
2022/06/05 03:52:04;;;;;;;4.45;3.42;;;16.70;99.90;;;;;;4956848;29;20039;-68
2022/06/05 03:54:30;;;;;;;6.32;3.65;;;16.70;99.90;;;;;;4956733;29;20042;-68
2022/06/05 03:56:56;;;;;;;4.15;3.75;;;16.80;99.90;;;;;;4956678;29;20383;-68
2022/06/05 03:59:22;;;;;;;4.50;3.63;;;16.80;99.90;;;;;;4940314;29;20023;-68
2022/06/05 04:01:48;;;;;;;3.72;3.33;;;16.80;99.90;;;;;;4956618;29;20038;-67
2022/06/05 04:04:14;;;;;;;4.25;3.85;;;16.80;99.90;;;;;;4956574;29;20027;-67
2022/06/05 04:06:40;;;;;;;3.63;3.40;;;16.80;99.90;;;;;;4956314;29;20439;-67
2022/06/05 04:09:07;;;;;;;4.25;3.33;;;16.80;99.90;;;;;;4939764;29;20126;-68
2022/06/05 04:11:35;;;;;;;4.80;3.00;;;16.80;99.90;;;;;;4939132;29;20031;-67
2022/06/05 04:14:01;;;;;;;3.50;3.20;;;16.90;99.90;;;;;;4956470;29;20028;-67
2022/06/05 04:16:29;;;;;;;4.95;3.33;;;16.90;99.90;;;;;;4956381;29;20371;-68
2022/06/05 04:18:56;;;;;;;5.50;3.63;;;17.00;99.90;;;;;;4956584;29;20038;-68
2022/06/05 04:21:28;;;;;;;6.22;3.92;;;17.10;99.90;;;;;;4939055;29;20127;-68
2022/06/05 04:23:55;;;;;;;4.22;3.28;;;17.10;99.90;;;;;;4956304;29;20078;-68
2022/06/05 04:26:24;;;;;;;3.70;3.40;;;17.20;99.90;;;;;;4956490;29;20031;-68
2022/06/05 04:28:52;;;;;;;4.18;3.80;;;17.20;99.90;;;;;;4938889;29;20019;-68
2022/06/05 04:31:25;;;;;;;5.57;3.45;;;17.20;99.90;;;;;;4956048;29;20125;-68
2022/06/05 04:33:53;;;;;;;4.28;3.60;;;17.30;99.90;;;;;;4938936;29;20027;-68
2022/06/05 04:36:19;;;;;;;4.63;4.23;;;17.40;99.90;;;;;;4956205;29;20037;-68
2022/06/05 04:38:47;;;;;;;7.25;3.95;;;17.40;99.90;;;;;;4956121;29;20263;-68
2022/06/05 04:41:13;;;;;;;5.18;3.60;;;17.60;99.90;;;;;;4938688;29;20447;-68
2022/06/05 04:43:38;;;;;;;5.28;4.43;;;17.60;99.90;;;;;;4955746;29;20468;-68
2022/06/05 04:46:05;;;;;;;10.40;7.70;;;17.70;99.90;;;;;;4956215;29;20058;-68
2022/06/05 04:48:31;;;;;;;8.13;6.60;;;17.80;99.90;;;;;;4956310;29;20073;-68
2022/06/05 04:50:58;;;;;;;7.53;6.60;;;17.90;99.90;;;;;;4955474;29;20442;-67
2022/06/05 04:53:24;;;;;;;7.55;6.78;;;17.90;99.90;;;;;;4938652;29;20047;-68
2022/06/05 04:55:49;;;;;;;11.50;8.00;;;18.00;99.90;;;;;;4955769;29;20062;-67
2022/06/05 04:58:15;;;;;;;9.35;6.95;;;18.00;99.90;;;;;;4955401;29;20118;-67
2022/06/05 05:00:41;;;;;;;8.07;7.35;;;18.10;99.90;;;;;;4955883;29;20049;-67
2022/06/05 05:03:08;;;;;;;12.63;8.70;;;18.20;99.90;;;;;;4938563;29;20427;-67
2022/06/05 05:05:34;;;;;;;11.07;9.45;;;18.20;99.90;;;;;;4955733;29;20028;-67
2022/06/05 05:08:00;;;;;;;12.55;11.18;;;18.30;99.90;;;;;;4955955;29;20035;-67
2022/06/05 05:10:26;;;;;;;15.00;12.25;;;18.40;99.90;;;;;;4955582;29;20436;-66
2022/06/05 05:12:52;;;;;;;14.93;12.23;;;18.30;99.90;;;;;;4938777;29;20042;-66
2022/06/05 05:15:18;;;;;;;14.63;12.38;;;18.40;99.90;;;;;;4955730;29;20023;-66
2022/06/05 05:17:44;;;;;;;13.73;12.25;;;18.40;99.90;;;;;;4955584;29;20050;-67
2022/06/05 05:20:10;;;;;;;13.73;11.85;;;18.50;99.90;;;;;;4955562;29;20031;-68
2022/06/05 05:22:39;;;;;;;16.08;12.23;;;18.60;99.90;;;;;;4955561;29;20039;-67
2022/06/05 05:25:10;;;;;;;16.20;12.93;;;18.60;99.90;;;;;;4955394;29;20098;-67
2022/06/05 05:27:37;;;;;;;13.73;12.00;;;18.70;99.90;;;;;;4955399;29;20114;-67
2022/06/05 05:30:06;;;;;;;15.35;12.60;;;18.70;99.90;;;;;;4955616;29;20039;-67
2022/06/05 05:32:32;;;;;;;13.77;12.35;;;18.90;99.90;;;;;;4955456;29;20039;-67
2022/06/05 05:34:58;;;;;;;13.07;11.77;;;19.00;99.90;;;;;;4955385;29;20036;-67
2022/06/05 05:37:24;;;;;;;16.30;12.98;;;19.10;99.90;;;;;;4955572;29;20034;-67
2022/06/05 05:42:34;;;;;;;14.70;11.98;;;19.30;99.90;;;;;;4955229;29;20034;-67
2022/06/05 05:44:59;;;;;;;14.38;12.88;;;19.30;99.90;;;;;;4955405;29;20027;-67
2022/06/05 05:47:28;;;;;;;14.65;11.73;;;19.40;99.90;;;;;;4938037;29;20063;-67
2022/06/05 05:50:00;;;;;;;15.00;12.10;;;19.50;99.90;;;;;;4955225;29;20046;-65
2022/06/05 05:52:27;;;;;;;14.48;11.80;;;19.60;99.90;;;;;;4955306;29;20024;-68
2022/06/05 05:54:53;;;;;;;12.45;10.90;;;19.80;99.90;;;;;;4955339;29;20030;-67
2022/06/05 05:57:20;;;;;;;13.48;12.07;;;19.90;99.90;;;;;;4938024;29;20386;-66
2022/06/05 05:59:46;;;;;;;15.27;12.40;;;20.10;99.90;;;;;;4955157;29;20098;-66
2022/06/05 06:02:16;;;;;;;13.90;12.50;;;20.00;99.90;;;;;;4955192;29;20031;-68
2022/06/05 06:04:42;;;;;;;14.07;12.05;;;20.00;99.90;;;;;;4955231;29;20430;-68
2022/06/05 06:07:09;;;;;;;15.35;12.90;;;20.10;99.90;;;;;;4955146;29;20038;-66
2022/06/05 06:09:36;;;;;;;13.07;11.68;;;20.30;99.90;;;;;;4955984;28;20038;-66
2022/06/05 06:12:03;;;;;;;13.85;11.15;;;20.40;99.90;;;;;;4958556;29;20031;-66
2022/06/05 06:14:28;;;;;;;13.80;11.80;;;20.50;99.90;;;;;;4958730;29;20035;-65
2022/06/05 06:16:54;;;;;;;13.18;11.88;;;20.40;99.90;;;;;;4958212;29;20387;-67
2022/06/05 06:19:20;;;;;;;12.00;10.57;;;20.70;99.90;;;;;;4958739;29;20020;-66
2022/06/05 06:21:45;;;;;;;11.25;10.15;;;21.30;99.90;;;;;;4958345;29;20510;-65
2022/06/05 06:24:12;;;;;;;10.80;9.38;;;21.90;99.90;;;;;;4958391;29;20047;-67
2022/06/05 06:26:38;;;;;;;10.63;9.50;;;22.10;99.90;;;;;;4940956;29;20034;-66
2022/06/05 06:29:04;;;;;;;10.85;9.77;;;22.50;99.90;;;;;;4958235;29;20023;-67
2022/06/05 06:31:30;;;;;;;10.00;8.90;;;22.90;99.90;;;;;;4940965;29;20039;-66
2022/06/05 06:33:56;;;;;;;10.80;9.13;;;23.10;99.90;;;;;;4940922;29;20034;-67
2022/06/05 06:36:22;;;;;;;9.60;8.80;;;23.40;99.90;;;;;;4958107;29;20059;-67
2022/06/05 06:38:47;;;;;;;10.07;9.13;;;23.30;99.90;;;;;;4958030;29;20023;-66
2022/06/05 06:41:17;;;;;;;9.65;8.70;;;23.20;99.90;;;;;;4957956;29;20411;-67
2022/06/05 06:43:44;;;;;;;9.23;8.38;;;23.10;99.90;;;;;;4957982;29;20061;-66
2022/06/05 06:46:11;;;;;;;9.15;8.32;;;22.70;99.90;;;;;;4957907;29;20053;-66
2022/06/05 06:48:37;;;;;;;9.18;8.25;;;22.70;99.90;;;;;;4940709;29;20031;-60
2022/06/05 06:51:04;;;;;;;9.27;8.35;;;23.00;99.90;;;;;;4957748;29;20159;-59
2022/06/05 06:53:32;;;;;;;9.23;8.05;;;23.30;99.90;;;;;;4957780;29;20034;-59
2022/06/05 06:55:57;;;;;;;8.10;7.38;;;23.50;99.90;;;;;;4957746;29;20035;-59
2022/06/05 06:58:24;;;;;;;8.55;7.85;;;23.80;99.90;;;;;;4957712;29;20543;-59
2022/06/05 07:00:49;;;;;;;8.25;7.47;;;24.10;99.90;;;;;;4957692;29;20052;-59
2022/06/05 07:03:15;;;;;;;8.25;7.50;;;24.20;99.90;;;;;;4940701;29;20110;-59
2022/06/05 07:05:41;;;;;;;8.73;7.80;;;24.30;99.90;;;;;;4958265;29;20375;-59
2022/06/05 07:08:09;;;;;;;8.57;7.78;;;24.40;99.90;;;;;;4957553;29;20086;-59
2022/06/05 07:10:35;;;;;;;7.75;7.05;;;24.20;99.90;;;;;;4957273;29;20486;-59
2022/06/05 07:13:01;;;;;;;7.63;7.00;;;24.20;99.90;;;;;;4957482;29;20134;-59
2022/06/05 07:15:33;;;;;;;7.47;6.80;;;24.40;99.90;;;;;;4957100;29;20106;-59
2022/06/05 07:18:01;;;;;;;7.82;6.93;;;24.80;99.90;;;;;;4957491;29;20023;-59
2022/06/05 07:20:26;;;;;;;7.05;6.40;;;25.00;99.90;;;;;;4957431;28;20034;-59
2022/06/05 07:22:52;;;;;;;6.82;6.30;;;25.20;99.90;;;;;;4957283;29;20395;-59
2022/06/05 07:25:18;;;;;;;7.43;6.85;;;25.40;99.90;;;;;;4957191;29;20058;-59
2022/06/05 07:27:43;;;;;;;7.18;6.30;;;25.70;99.90;;;;;;4957756;29;20027;-59
2022/06/05 07:30:12;;;;;;;6.57;5.82;;;26.00;99.90;;;;;;4957129;29;20056;-59
2022/06/05 07:32:37;;;;;;;6.90;6.30;;;26.10;99.30;;;;;;4957360;29;20023;-59
2022/06/05 07:35:04;;;;;;;6.03;5.53;;;26.10;98.40;;;;;;4957180;29;20094;-59
2022/06/05 07:37:29;;;;;;;6.15;5.55;;;26.00;96.20;;;;;;4956715;29;20479;-59
2022/06/05 07:39:55;;;;;;;6.75;5.38;;;25.90;96.20;;;;;;4956868;29;20042;-59
2022/06/05 07:42:20;;;;;;;6.55;5.95;;;26.10;95.70;;;;;;4956895;29;20057;-59
2022/06/05 07:44:46;;;;;;;6.20;5.70;;;25.90;95.10;;;;;;4956864;29;20465;-60
2022/06/05 07:47:11;;;;;;;6.95;6.25;;;25.70;96.70;;;;;;4956797;29;20035;-59
2022/06/05 07:49:39;;;;;;;6.35;5.72;;;26.00;96.30;;;;;;4957148;29;20455;-59
2022/06/05 07:54:50;;;;;;;6.63;6.03;;;26.60;94.00;;;;;;4956717;29;20026;-60
2022/06/05 07:57:19;;;;;;;5.93;5.43;;;27.00;92.90;;;;;;4956640;29;20031;-59
2022/06/05 07:59:49;;;;;;;6.55;5.72;;;27.10;92.70;;;;;;4956242;29;20554;-59
2022/06/05 08:02:21;;;;;;;6.40;5.80;;;27.30;91.70;;;;;;4956456;29;20031;-68
2022/06/05 08:04:48;;;;;;;7.05;6.22;;;27.40;90.90;;;;;;4956468;29;20106;-72
2022/06/05 08:07:17;;;;;;;6.32;5.75;;;27.60;89.30;;;;;;4939288;29;20037;-72
2022/06/05 08:09:44;;;;;;;5.97;5.38;;;27.70;87.90;;;;;;4956400;29;20062;-73
2022/06/05 08:12:11;;;;;;;6.30;5.80;;;27.90;89.30;;;;;;4956427;29;20063;-73
2022/06/05 08:14:39;;;;;;;7.50;5.55;;;28.00;84.90;;;;;;4955847;29;20035;-73
2022/06/05 08:17:11;;;;;;;6.32;5.72;;;27.70;87.10;;;;;;4956432;29;20473;-73
2022/06/05 08:19:40;;;;;;;5.40;5.00;;;28.20;84.40;;;;;;4956883;29;20027;-73
2022/06/05 08:22:08;;;;;;;5.47;4.97;;;28.70;81.20;;;;;;4939455;29;20035;-73
2022/06/05 08:24:34;;;;;;;5.35;4.85;;;29.00;76.50;;;;;;4938621;29;20479;-73
2022/06/05 08:27:00;;;;;;;5.38;4.95;;;29.40;74.80;;;;;;4956170;29;20039;-73
2022/06/05 08:29:25;;;;;;;5.88;5.38;;;29.70;71.80;;;;;;4956145;29;20031;-73
2022/06/05 08:31:53;;;;;;;6.22;4.90;;;29.70;71.60;;;;;;4938395;29;20043;-73
2022/06/05 08:34:19;;;;;;;5.28;4.85;;;29.50;70.30;;;;;;4955943;29;20031;-73
2022/06/05 08:36:46;;;;;;;5.90;4.65;;;29.80;69.50;;;;;;4938911;29;20034;-73
2022/06/05 08:42:20;;;;;;;6.07;5.47;;;29.90;66.60;;;;;;4956007;29;20160;-73
2022/06/05 08:44:52;;;;;;;5.57;5.10;;;29.40;67.50;;;;;;4938705;29;20459;-73
2022/06/05 08:47:29;;;;;;;5.18;4.72;;;29.80;67.60;;;;;;4955890;29;20034;-73
2022/06/05 08:50:28;;;;;;;4.93;4.50;;;30.20;66.70;;;;;;4938614;29;20579;-74
2022/06/05 08:53:04;;;;;;;6.88;5.22;;;30.70;64.10;;;;;;4939181;29;20031;-74
2022/06/05 08:55:32;;;;;;;4.97;4.57;;;30.80;61.00;;;;;;4956067;29;20019;-73
2022/06/05 08:58:12;;;;;;;5.40;5.00;;;30.70;61.00;;;;;;4938966;29;20435;-74
2022/06/05 09:00:49;;;;;;;4.88;4.45;;;30.30;60.60;;;;;;4956341;29;20046;-74
2022/06/05 09:03:37;;;;;;;4.93;4.53;;;30.50;60.70;;;;;;4955887;29;20027;-73
2022/06/05 09:06:08;;;;;;;4.88;4.47;;;30.30;60.10;;;;;;4955664;29;20452;-74
2022/06/05 09:08:38;;;;;;;4.88;4.47;;;29.90;59.80;;;;;;4955664;29;20070;-74
2022/06/05 09:11:10;;;;;;;4.50;4.20;;;29.80;60.30;;;;;;4955520;29;20039;-74
2022/06/05 09:13:43;;;;;;;4.22;3.92;;;30.20;60.60;;;;;;4955748;29;20041;-74
2022/06/05 09:16:22;;;;;;;4.18;3.78;;;30.80;58.90;;;;;;4938318;29;20027;-74
2022/06/05 09:18:49;;;;;;;4.43;3.92;;;31.00;56.80;;;;;;4955654;29;20051;-74
2022/06/05 09:21:25;;;;;;;4.30;3.90;;;31.10;58.00;;;;;;4955410;29;20114;-74
2022/06/05 09:24:00;;;;;;;4.93;4.30;;;31.30;55.50;;;;;;4955381;28;20031;-74
2022/06/05 09:26:43;;;;;;;4.03;3.72;;;31.30;55.30;;;;;;4955628;29;20033;-74
2022/06/05 09:29:09;;;;;;;4.78;4.38;;;31.50;55.30;;;;;;4938224;29;20034;-74
2022/06/05 09:31:56;;;;;;;4.30;4.00;;;30.70;54.80;;;;;;4938102;29;20043;-74
2022/06/05 09:34:33;;;;;;;4.83;4.00;;;30.40;57.20;;;;;;4955492;29;20031;-74
2022/06/05 09:37:31;;;;;;;4.53;4.13;;;30.60;56.20;;;;;;4938107;29;20027;-74
2022/06/05 09:40:02;;;;;;;4.50;3.45;;;30.90;54.40;;;;;;4938265;29;20034;-75
2022/06/05 09:42:45;;;;;;;3.60;3.40;;;30.90;52.50;;;;;;4955097;29;20038;-74
2022/06/05 09:45:34;;;;;;;3.63;3.33;;;30.70;53.20;;;;;;4939973;29;20035;-74
2022/06/05 09:48:18;;;;;;;5.10;3.80;;;30.90;52.90;;;;;;4959102;29;20035;-74
2022/06/05 09:50:44;;;;;;;3.53;3.22;;;31.30;51.20;;;;;;4958914;29;20035;-74
2022/06/05 09:53:18;;;;;;;3.72;3.35;;;31.60;51.90;;;;;;4959011;29;20368;-74
2022/06/05 09:56:16;;;;;;;3.40;3.10;;;31.80;52.00;;;;;;4959054;29;20046;-74
2022/06/05 09:59:08;;;;;;;4.10;3.53;;;32.30;50.60;;;;;;4959175;29;20035;-73
2022/06/05 10:01:47;;;;;;;3.38;3.17;;;32.30;49.90;;;;;;4941831;29;20041;-75
2022/06/05 10:04:13;;;;;;;3.40;3.10;;;32.40;50.50;;;;;;4958980;29;20488;-73
2022/06/05 10:06:48;;;;;;;3.90;3.10;;;31.50;48.90;;;;;;4941701;29;20135;-73
2022/06/05 10:09:25;;;;;;;3.30;3.00;;;30.90;50.90;;;;;;4958266;29;20379;-69
2022/06/05 10:12:15;;;;;;;3.22;2.80;;;31.00;51.00;;;;;;4958577;29;20118;-69
2022/06/05 10:15:05;;;;;;;3.05;2.67;;;31.90;50.40;;;;;;4958989;29;20051;-69
2022/06/05 10:17:30;;;;;;;3.53;2.70;;;32.10;47.40;;;;;;4958621;29;20110;-70
2022/06/05 10:20:33;;;;;;;3.17;2.70;;;32.30;48.50;;;;;;4958748;29;20110;-70
2022/06/05 10:23:16;;;;;;;3.42;3.15;;;32.80;47.90;;;;;;4958292;29;20407;-69
2022/06/05 10:26:20;;;;;;;3.13;2.92;;;32.20;47.20;;;;;;4958597;29;20047;-75
2022/06/05 10:28:49;;;;;;;4.35;3.05;;;32.50;48.40;;;;;;4958516;29;20038;-77
2022/06/05 10:31:28;;;;;;;2.95;2.75;;;32.50;47.10;;;;;;4958292;29;20036;-74
2022/06/05 10:34:19;;;;;;;3.20;3.00;;;32.10;48.40;;;;;;4958277;29;20020;-79
2022/06/05 10:36:57;;;;;;;3.55;2.75;;;32.20;48.00;;;;;;4941817;29;20090;-77
2022/06/05 10:39:41;;;;;;;3.63;3.08;;;32.30;47.80;;;;;;4958183;29;20059;-68
2022/06/05 10:42:27;;;;;;;2.63;2.47;;;32.00;48.00;;;;;;4958221;29;20036;-69
2022/06/05 10:45:15;;;;;;;3.70;3.05;;;32.10;47.00;;;;;;4940858;29;20034;-78
2022/06/05 10:47:56;;;;;;;;;;;32.20;46.40;;;;;;4958528;29;20024;-73
2022/06/05 10:50:45;;;;;;;3.53;3.13;;;32.50;47.70;;;;;;4940663;29;19918;-73
2022/06/05 10:53:11;;;;;;;3.63;3.33;;;32.40;47.00;;;;;;4939655;29;20043;-76
2022/06/05 10:56:08;;;;;;;3.53;3.22;;;32.40;49.00;;;;;;4957428;28;20050;-77
2022/06/05 10:58:43;;;;;;;3.17;2.97;;;32.70;46.70;;;;;;4957996;29;20379;-77
2022/06/05 11:01:35;;;;;;;3.17;2.95;;;32.20;47.70;;;;;;4957957;29;20042;-76
2022/06/05 11:04:13;;;;;;;3.20;3.00;;;33.30;47.70;;;;;;4957688;29;20031;-76
2022/06/05 11:07:37;;;;;;;3.00;2.80;;;33.90;46.10;;;;;;4940372;29;20483;-76
2022/06/05 11:13:39;;;;;;;3.53;3.22;;;33.80;46.00;;;;;;4924776;29;20051;-75
2022/06/05 11:16:19;;;;;;;3.30;3.10;;;33.20;44.60;;;;;;4957676;29;20127;-75
2022/06/05 11:19:08;;;;;;;2.95;2.70;;;32.00;45.70;;;;;;4940481;29;20356;-73
2022/06/05 11:21:34;;;;;;;3.40;3.10;;;31.90;48.30;;;;;;4940118;29;20465;-77
2022/06/05 11:24:00;;;;;;;2.97;2.78;;;32.90;47.00;;;;;;4940055;29;20522;-78
2022/06/05 11:26:42;;;;;;;3.25;2.63;;;32.50;46.00;;;;;;4940150;29;20027;-76
2022/06/05 11:29:53;;;;;;;3.30;3.10;;;33.20;45.50;;;;;;4940093;29;20431;-78
2022/06/05 11:32:54;;;;;;;3.63;3.33;;;33.10;45.90;;;;;;4879184;29;20506;-78
2022/06/05 11:36:00;;;;;;;4.68;2.83;;;33.80;45.90;;;;;;4863539;29;20177;-77
2022/06/05 11:38:46;;;;;;;4.15;3.35;;;33.60;47.20;;;;;;4879550;29;20129;-78
2022/06/05 11:41:19;;;;;;;3.17;2.92;;;34.00;45.80;;;;;;4863401;29;20039;-76
2022/06/05 11:43:45;;;;;;;3.08;2.88;;;34.10;45.00;;;;;;4879131;29;20159;-77
2022/06/05 11:46:25;;;;;;;3.10;2.90;;;33.90;44.90;;;;;;4878849;29;20108;-76
2022/06/05 11:49:22;;;;;;;4.97;2.88;;;33.30;43.00;;;;;;4863225;29;20036;-77
2022/06/05 11:51:57;;;;;;;3.35;3.15;;;33.40;45.20;;;;;;4878147;29;20529;-74
2022/06/05 11:54:29;;;;;;;4.50;3.60;;;33.30;45.00;;;;;;4863248;29;20052;-75
2022/06/05 11:56:58;;;;;;;3.65;3.35;;;33.10;46.50;;;;;;4878605;29;20554;-74
2022/06/05 11:59:39;;;;;;;4.75;3.83;;;33.10;47.30;;;;;;4863149;29;20513;-74
2022/06/05 12:02:08;;;;;;;4.85;3.53;;;32.80;47.10;;;;;;4890805;29;20039;-74
2022/06/05 12:04:56;;;;;;;4.00;3.70;;;33.30;46.70;;;;;;4956508;29;20184;-74
2022/06/05 12:07:24;;;;;;;9.17;3.83;;;33.70;45.80;;;;;;4955438;28;20078;-74
2022/06/05 12:09:55;;;;;;;4.00;3.60;;;33.30;46.50;;;;;;4939627;29;20051;-76
2022/06/05 12:12:23;;;;;;;4.45;4.15;;;33.20;48.20;;;;;;4956732;29;20566;-74
2022/06/05 12:14:57;;;;;;;4.40;4.00;;;33.10;47.40;;;;;;4939121;29;20031;-74
2022/06/05 12:17:41;;;;;;;4.80;4.30;;;32.60;48.80;;;;;;4956338;29;20039;-77
2022/06/05 12:20:37;;;;;;;5.32;4.05;;;33.00;47.30;;;;;;4939279;29;20034;-72
2022/06/05 12:23:33;;;;;;;5.10;4.63;;;32.70;49.00;;;;;;4956583;29;20031;-75
2022/06/05 12:26:13;;;;;;;4.65;4.13;;;31.60;50.10;;;;;;4939178;29;20506;-84
2022/06/05 12:28:47;;;;;;;6.82;4.15;;;31.30;51.70;;;;;;4957350;29;20036;-83
2022/06/05 12:31:23;;;;;;;7.05;4.40;;;30.80;51.70;;;;;;4956801;29;20456;-83
2022/06/05 12:33:49;;;;;;;4.10;3.80;;;30.80;52.30;;;;;;4956515;29;20102;-83
2022/06/05 12:36:22;;;;;;;4.40;4.00;;;30.80;52.60;;;;;;4956390;29;20023;-83
2022/06/05 12:39:04;;;;;;;4.18;3.78;;;30.70;52.50;;;;;;4956273;29;20031;-83
2022/06/05 12:41:42;;;;;;;3.92;3.63;;;29.80;52.80;;;;;;4956748;29;20089;-83
2022/06/05 12:44:24;;;;;;;3.97;3.72;;;29.60;54.30;;;;;;4956634;29;20034;-83
2022/06/05 12:46:55;;;;;;;4.25;3.95;;;29.70;54.70;;;;;;4956160;29;20542;-83
2022/06/05 12:49:39;;;;;;;4.88;4.47;;;29.00;55.50;;;;;;4956246;29;20416;-83
2022/06/05 12:52:30;;;;;;;4.80;4.07;;;28.80;57.40;;;;;;4956423;29;20045;-83
2022/06/05 12:55:06;;;;;;;4.30;4.00;;;29.10;58.20;;;;;;4939290;29;20027;-85
2022/06/05 12:57:39;;;;;;;3.88;3.58;;;29.90;55.90;;;;;;4956325;29;20053;-83
2022/06/05 13:00:32;;;;;;;3.47;3.17;;;29.90;54.90;;;;;;4956272;29;20127;-82
2022/06/05 13:03:20;;;;;;;3.55;3.25;;;29.50;54.70;;;;;;4939184;29;20101;-82
2022/06/05 13:05:45;;;;;;;4.20;3.13;;;29.20;55.60;;;;;;4956255;29;20071;-82
2022/06/05 13:08:25;;;;;;;5.55;3.72;;;29.50;56.10;;;;;;4956357;29;20426;-83
2022/06/05 13:11:05;;;;;;;6.97;3.17;;;29.90;54.40;;;;;;4956390;29;20082;-82
2022/06/05 13:14:03;;;;;;;3.40;3.20;;;29.50;54.60;;;;;;4956085;29;20042;-83
2022/06/05 13:17:07;;;;;;;3.70;2.75;;;29.20;55.40;;;;;;4939132;29;20357;-83
2022/06/05 13:19:56;;;;;;;3.15;2.90;;;29.30;54.10;;;;;;4941032;29;20042;-82
2022/06/05 13:22:46;;;;;;;4.38;2.83;;;29.10;55.80;;;;;;4941758;29;20525;-84
2022/06/05 13:25:24;;;;;;;3.10;2.90;;;29.70;56.70;;;;;;4959861;29;20514;-83
2022/06/05 13:28:06;;;;;;;2.88;2.67;;;30.30;53.50;;;;;;4959778;29;20387;-85
2022/06/05 13:30:50;;;;;;;2.55;2.42;;;30.70;52.30;;;;;;4942760;29;20102;-86
2022/06/05 13:33:29;;;;;;;3.58;2.28;;;31.40;50.60;;;;;;4960118;29;20456;-86